Terminal Aerodrome Forecast
Issued by NWS

Home | Current Version | Previous Version | Text Only | Print | Product List | Glossary On
Versions: 1 2 3 4 5 6 7 8 9 10 11 12 13 14 15 16 17 18 19 20
000
FTUS43 KDTX 240520
TAFYIP
TAF
KYIP 240520Z 2406/2506 05010KT 6SM -SHRA BR BKN040 OVC060
      TEMPO 2406/2409 5SM -SHRA BR BKN025 OVC045
     FM240900 07010KT 6SM -SHRA BR BKN008 OVC018
     FM241200 11010KT 2SM -DZ BR BKN005 OVC012
     FM241600 16013KT P6SM BKN018 BKN025
     FM241900 17013G20KT P6SM BKN040
     FM250100 18012G18KT 5SM -SHRA SCT008 OVC018 PROB30 2503/2506
      3SM TSRA OVC008CB=

USA.gov is the U.S. government's official web portal to all federal, state and local government web resources and services.